createdAt,value
2023-02-01T00:04:39.531Z,11.38
2023-02-01T00:07:14.227Z,12.10
2023-02-01T00:09:46.292Z,12.48
2023-02-01T00:12:18.439Z,12.70
2023-02-01T00:14:50.334Z,12.40
2023-02-01T00:17:22.127Z,11.85
2023-02-01T00:19:54.390Z,13.25
2023-02-01T00:22:26.272Z,15.30
2023-02-01T00:24:58.211Z,15.38
2023-02-01T00:27:30.146Z,16.02
2023-02-01T00:30:04.293Z,16.02
2023-02-01T00:32:41.056Z,16.10
2023-02-01T00:35:12.935Z,15.45
2023-02-01T00:37:45.731Z,15.30
2023-02-01T00:40:44.179Z,13.98
2023-02-01T00:43:16.136Z,12.50
2023-02-01T00:45:49.902Z,12.23
2023-02-01T00:48:21.764Z,11.90
2023-02-01T00:50:53.856Z,11.73
2023-02-01T00:53:25.687Z,12.48
2023-02-01T00:56:01.037Z,12.48
2023-02-01T00:58:33.899Z,12.52
2023-02-01T01:01:15.049Z,13.70
2023-02-01T01:03:52.501Z,13.65
2023-02-01T01:06:33.086Z,13.38
2023-02-01T01:09:08.015Z,13.32
2023-02-01T01:11:40.148Z,12.57
2023-02-01T01:14:12.192Z,12.45
2023-02-01T01:16:44.143Z,11.73
2023-02-01T01:19:16.096Z,13.98
2023-02-01T01:21:48.108Z,13.43
2023-02-01T01:24:21.416Z,13.38
2023-02-01T01:26:53.393Z,13.48
2023-02-01T01:29:25.898Z,13.57
2023-02-01T01:31:57.991Z,14.00
2023-02-01T01:34:29.940Z,14.18
2023-02-01T01:37:01.817Z,14.10
2023-02-01T01:39:33.639Z,14.75
2023-02-01T01:42:05.578Z,14.80
2023-02-01T01:44:59.478Z,14.82
2023-02-01T01:47:42.240Z,13.82
2023-02-01T01:50:18.157Z,13.65
2023-02-01T01:52:53.033Z,14.55
2023-02-01T01:55:27.014Z,12.55
2023-02-01T01:58:03.794Z,11.95
2023-02-01T02:00:36.104Z,11.35
2023-02-01T02:03:16.235Z,11.15
2023-02-01T02:05:51.719Z,11.30
2023-02-01T02:08:26.623Z,11.85
2023-02-01T02:11:01.649Z,12.27
2023-02-01T02:13:36.280Z,11.38
2023-02-01T02:16:11.012Z,10.65
2023-02-01T02:18:57.773Z,10.63
2023-02-01T02:21:35.409Z,12.50
2023-02-01T02:24:26.143Z,12.82
2023-02-01T02:27:28.150Z,12.20
2023-02-01T02:30:20.137Z,12.27
2023-02-01T02:33:23.207Z,10.17
2023-02-01T02:36:04.215Z,12.52
2023-02-01T02:39:12.648Z,13.10
2023-02-01T02:42:37.315Z,13.07
2023-02-01T02:45:37.579Z,12.85
2023-02-01T02:48:17.730Z,13.43
2023-02-01T02:51:40.113Z,14.40
2023-02-01T02:54:52.970Z,15.20
2023-02-01T02:57:53.434Z,14.85
2023-02-01T03:00:53.186Z,14.52
2023-02-01T03:03:44.065Z,16.15
2023-02-01T03:06:19.670Z,15.10
2023-02-01T03:08:55.042Z,14.80
2023-02-01T03:11:50.373Z,13.93
2023-02-01T03:14:26.611Z,14.45
2023-02-01T03:17:06.323Z,15.82
2023-02-01T03:19:50.424Z,14.60
2023-02-01T03:22:27.640Z,15.82
2023-02-01T03:25:08.639Z,15.38
2023-02-01T03:27:46.651Z,14.73
2023-02-01T03:30:27.569Z,15.00
2023-02-01T03:33:01.987Z,15.45
2023-02-01T03:36:08.030Z,15.13
2023-02-01T03:38:49.763Z,15.60
2023-02-01T03:41:45.541Z,15.15
2023-02-01T03:44:26.750Z,16.92
2023-02-01T03:47:14.636Z,17.67
2023-02-01T03:49:55.928Z,17.52
2023-02-01T03:52:53.178Z,17.08
2023-02-01T03:55:28.392Z,18.40
2023-02-01T03:58:08.099Z,17.73
2023-02-01T04:00:40.510Z,18.08
2023-02-01T04:03:12.721Z,18.05
2023-02-01T04:05:44.710Z,17.63
2023-02-01T04:08:17.074Z,18.10
2023-02-01T04:10:48.955Z,16.85
2023-02-01T04:13:20.776Z,19.77
2023-02-01T04:15:52.830Z,21.02
2023-02-01T04:18:24.751Z,22.45
2023-02-01T04:20:56.627Z,23.90
2023-02-01T04:23:30.579Z,24.15
2023-02-01T04:26:04.347Z,23.13
2023-02-01T04:28:38.869Z,22.25
2023-02-01T04:31:11.027Z,22.05
2023-02-01T04:33:43.043Z,21.70
2023-02-01T04:36:14.903Z,22.17
2023-02-01T04:38:46.800Z,21.23
2023-02-01T04:41:19.826Z,21.45
2023-02-01T04:43:53.564Z,23.55
2023-02-01T04:46:25.564Z,22.88
2023-02-01T04:48:57.392Z,24.63
2023-02-01T04:51:29.335Z,23.30
2023-02-01T04:54:01.120Z,23.42
2023-02-01T04:56:33.209Z,23.00
2023-02-01T04:59:06.155Z,22.85
2023-02-01T05:01:38.131Z,21.35
2023-02-01T05:04:10.959Z,22.23
2023-02-01T05:06:42.815Z,23.23
2023-02-01T05:09:14.732Z,23.40
2023-02-01T05:12:05.141Z,23.15
2023-02-01T05:14:36.979Z,22.98
2023-02-01T05:17:08.987Z,21.85
2023-02-01T05:19:40.863Z,22.33
2023-02-01T05:22:12.772Z,21.27
2023-02-01T05:24:45.663Z,20.95
2023-02-01T05:27:17.990Z,21.90
2023-02-01T05:29:49.892Z,22.25
2023-02-01T05:32:23.847Z,23.40
2023-02-01T05:34:55.876Z,23.58
2023-02-01T05:37:27.791Z,23.75
2023-02-01T05:39:59.656Z,22.85
2023-02-01T05:42:31.522Z,25.33
2023-02-01T05:45:06.120Z,23.75
2023-02-01T05:47:38.129Z,23.60
2023-02-01T05:50:10.367Z,24.27
2023-02-01T05:52:43.621Z,25.48
2023-02-01T05:55:15.601Z,24.08
2023-02-01T05:57:47.654Z,23.52
2023-02-01T06:00:22.210Z,23.05
2023-02-01T06:02:54.331Z,23.70
2023-02-01T06:05:26.736Z,24.05
2023-02-01T06:07:59.270Z,25.90
2023-02-01T06:10:31.241Z,25.55
2023-02-01T06:13:04.812Z,25.63
2023-02-01T06:15:38.496Z,25.60
2023-02-01T06:18:10.631Z,26.73
2023-02-01T06:20:42.543Z,26.52
2023-02-01T06:23:14.365Z,26.48
2023-02-01T06:25:46.266Z,28.05
2023-02-01T06:28:18.173Z,28.48
2023-02-01T06:30:50.171Z,28.63
2023-02-01T06:33:22.480Z,29.55
2023-02-01T06:36:00.165Z,28.52
2023-02-01T06:38:32.974Z,28.65
2023-02-01T06:41:05.388Z,30.92
2023-02-01T06:43:38.198Z,29.27
2023-02-01T06:46:13.419Z,31.60
2023-02-01T06:48:47.120Z,31.20
2023-02-01T06:51:25.037Z,29.23
2023-02-01T06:53:58.047Z,29.08
2023-02-01T06:56:29.960Z,29.73
2023-02-01T06:59:05.327Z,28.20
2023-02-01T07:01:37.199Z,29.08
2023-02-01T07:04:12.047Z,29.63
2023-02-01T07:06:44.060Z,29.70
2023-02-01T07:09:15.970Z,28.73
2023-02-01T07:11:48.041Z,29.33
2023-02-01T07:14:19.888Z,28.73
2023-02-01T07:16:52.172Z,29.27
2023-02-01T07:19:24.021Z,30.17
2023-02-01T07:21:55.897Z,30.52
2023-02-01T07:24:27.788Z,31.10
2023-02-01T07:26:59.609Z,33.35
2023-02-01T07:29:31.446Z,34.80
2023-02-01T07:32:03.534Z,55.60
2023-02-01T07:34:35.856Z,43.30
2023-02-01T07:37:09.173Z,32.25
2023-02-01T07:39:40.997Z,31.42
2023-02-01T07:42:12.841Z,31.63
2023-02-01T07:44:44.734Z,32.20
2023-02-01T07:47:16.577Z,31.55
2023-02-01T07:49:48.513Z,30.98
2023-02-01T07:52:20.528Z,31.95
2023-02-01T07:54:52.359Z,31.58
2023-02-01T07:57:24.370Z,29.80
2023-02-01T08:00:15.046Z,29.50
2023-02-01T08:02:48.001Z,30.13
2023-02-01T08:05:20.308Z,30.15
2023-02-01T08:10:48.627Z,28.63
2023-02-01T08:13:20.756Z,29.33
2023-02-01T08:15:52.639Z,26.83
2023-02-01T08:18:24.722Z,29.02
2023-02-01T08:20:58.058Z,27.67
2023-02-01T08:23:29.940Z,30.52
2023-02-01T08:26:11.234Z,29.50
2023-02-01T08:28:45.864Z,34.92
2023-02-01T08:31:21.308Z,31.45
2023-02-01T08:33:56.098Z,30.05
2023-02-01T08:36:29.892Z,29.58
2023-02-01T08:39:06.916Z,29.10
2023-02-01T08:41:39.354Z,28.77
2023-02-01T08:44:11.347Z,28.98
2023-02-01T08:46:45.936Z,28.63
2023-02-01T08:49:17.826Z,30.17
2023-02-01T08:51:49.642Z,32.97
2023-02-01T08:54:22.226Z,35.22
2023-02-01T08:56:56.456Z,35.05
2023-02-01T08:59:30.354Z,38.70
2023-02-01T09:02:02.549Z,38.63
2023-02-01T09:04:34.390Z,35.60
2023-02-01T09:07:06.457Z,37.45
2023-02-01T09:09:39.533Z,37.25
2023-02-01T09:12:12.124Z,37.67
2023-02-01T09:14:45.521Z,37.28
2023-02-01T09:17:17.957Z,38.85
2023-02-01T09:19:49.891Z,39.92
2023-02-01T09:22:22.410Z,38.45
2023-02-01T09:24:55.350Z,37.83
2023-02-01T09:27:27.627Z,38.20
2023-02-01T09:29:59.502Z,38.10
2023-02-01T09:32:31.731Z,37.08
2023-02-01T09:35:04.914Z,35.15
2023-02-01T09:37:38.537Z,33.55
2023-02-01T09:40:18.657Z,34.38
2023-02-01T09:43:04.083Z,35.22
2023-02-01T10:01:00.677Z,48.80
2023-02-01T10:03:37.501Z,51.10
2023-02-01T10:06:28.949Z,49.20
2023-02-01T10:09:17.210Z,47.90
2023-02-01T10:11:59.202Z,49.17
2023-02-01T10:14:51.490Z,50.08
2023-02-01T10:17:47.609Z,50.92
2023-02-01T10:20:40.861Z,49.55
2023-02-01T10:23:35.587Z,50.55
2023-02-01T10:26:20.175Z,51.35
2023-02-01T10:28:56.239Z,53.47
2023-02-01T10:31:32.250Z,54.00
2023-02-01T10:34:24.276Z,54.40
2023-02-01T10:37:17.948Z,54.17
2023-02-01T10:39:53.315Z,53.58
2023-02-01T10:42:28.350Z,56.42
2023-02-01T10:45:11.969Z,53.25
2023-02-01T10:47:44.383Z,53.60
2023-02-01T10:50:40.287Z,53.63
2023-02-01T10:53:51.691Z,52.90
2023-02-01T10:56:28.824Z,53.63
2023-02-01T10:59:03.453Z,49.67
2023-02-01T11:01:41.234Z,49.22
2023-02-01T11:04:19.854Z,51.50
2023-02-01T11:07:11.677Z,47.50
2023-02-01T11:09:51.526Z,46.80
2023-02-01T11:12:31.060Z,43.85
2023-02-01T11:15:21.060Z,44.50
2023-02-01T11:17:55.775Z,43.67
2023-02-01T11:20:33.741Z,43.50
2023-02-01T11:23:06.179Z,46.13
2023-02-01T11:25:59.066Z,46.05
2023-02-01T11:28:36.749Z,45.85
2023-02-01T11:31:14.092Z,45.05
2023-02-01T11:34:01.743Z,45.13
2023-02-01T11:36:37.995Z,42.90
2023-02-01T11:39:35.221Z,44.67
2023-02-01T11:42:24.459Z,46.33
2023-02-01T11:45:26.715Z,45.45
2023-02-01T11:47:59.875Z,47.05
2023-02-01T11:50:44.865Z,47.60
2023-02-01T11:53:22.707Z,46.70
2023-02-01T11:56:16.528Z,48.30
2023-02-01T11:58:51.420Z,48.78
2023-02-01T12:01:42.597Z,49.15
2023-02-01T12:04:29.827Z,50.83
2023-02-01T12:07:07.232Z,50.55
2023-02-01T12:10:05.371Z,50.85
2023-02-01T12:13:21.508Z,51.53
2023-02-01T12:16:24.397Z,51.42
2023-02-01T12:19:14.642Z,51.50
2023-02-01T12:22:04.941Z,53.63
2023-02-01T12:25:17.064Z,54.58
2023-02-01T12:28:07.490Z,53.20
2023-02-01T12:30:58.253Z,52.72
2023-02-01T12:33:40.349Z,40.93
2023-02-01T12:36:19.941Z,53.03
2023-02-01T12:39:13.714Z,54.53
2023-02-01T12:41:57.408Z,51.25
2023-02-01T12:44:40.501Z,52.13
2023-02-01T12:47:15.785Z,53.65
2023-02-01T12:50:09.382Z,51.22
2023-02-01T12:52:50.531Z,52.05
2023-02-01T12:55:37.717Z,51.72
2023-02-01T12:58:18.465Z,53.30
2023-02-01T13:01:00.174Z,53.55
2023-02-01T13:03:45.684Z,52.60
2023-02-01T13:06:33.751Z,53.30
2023-02-01T13:09:22.287Z,53.65
2023-02-01T13:11:59.607Z,55.42
2023-02-01T13:14:39.912Z,55.22
2023-02-01T13:17:14.308Z,53.13
2023-02-01T13:20:05.742Z,55.28
2023-02-01T13:22:50.767Z,54.03
2023-02-01T13:25:47.598Z,54.30
2023-02-01T13:28:42.855Z,53.60
2023-02-01T13:31:38.728Z,55.88
2023-02-01T13:34:32.339Z,55.45
2023-02-01T13:37:25.822Z,53.72
2023-02-01T13:40:41.885Z,54.22
2023-02-01T13:43:23.758Z,55.63
2023-02-01T13:46:05.802Z,53.88
2023-02-01T13:48:52.850Z,54.67
2023-02-01T13:51:38.580Z,55.00
2023-02-01T13:54:35.329Z,54.20
2023-02-01T13:57:36.698Z,54.78
2023-02-01T14:00:37.331Z,53.28
2023-02-01T14:03:24.416Z,53.30
2023-02-01T14:06:00.382Z,54.15
2023-02-01T14:08:43.763Z,54.78
2023-02-01T14:11:46.819Z,54.22
2023-02-01T14:14:20.160Z,53.30
2023-02-01T14:16:55.307Z,54.45
2023-02-01T14:19:35.643Z,54.75
2023-02-01T14:22:25.090Z,54.70
2023-02-01T14:24:58.954Z,55.80
2023-02-01T14:27:54.611Z,54.00
2023-02-01T14:30:27.100Z,53.20
2023-02-01T14:32:59.137Z,54.72
2023-02-01T14:35:31.101Z,57.40
2023-02-01T14:38:05.125Z,55.10
2023-02-01T14:40:37.189Z,56.72
2023-02-01T14:43:09.572Z,53.35
2023-02-01T14:46:07.374Z,55.63
2023-02-01T14:48:39.608Z,56.00
2023-02-01T14:51:14.379Z,53.28
2023-02-01T14:53:47.845Z,55.88
2023-02-01T14:56:22.265Z,55.80
2023-02-01T14:59:13.206Z,56.50
2023-02-01T15:01:53.259Z,57.37
2023-02-01T15:04:27.927Z,54.40
2023-02-01T15:07:08.152Z,55.67
2023-02-01T15:09:48.693Z,54.33
2023-02-01T15:12:31.667Z,55.70
2023-02-01T15:15:18.161Z,54.80
2023-02-01T15:17:58.435Z,57.35
2023-02-01T15:20:33.952Z,55.92
2023-02-01T15:23:26.482Z,56.33
2023-02-01T15:26:00.293Z,55.72
2023-02-01T15:28:32.259Z,58.28
2023-02-01T15:31:06.648Z,60.92
2023-02-01T15:33:38.677Z,62.40
2023-02-01T15:36:19.747Z,58.63
2023-02-01T15:39:19.504Z,63.97
2023-02-01T15:41:55.389Z,62.83
2023-02-01T15:44:43.743Z,62.67
2023-02-01T15:47:24.709Z,66.10
2023-02-01T15:49:59.370Z,61.97
2023-02-01T15:52:38.703Z,59.95
2023-02-01T15:55:22.314Z,59.78
2023-02-01T15:57:54.527Z,58.53
2023-02-01T16:00:34.627Z,74.63
2023-02-01T16:03:24.524Z,55.85
2023-02-01T16:05:59.399Z,58.63
2023-02-01T16:08:37.802Z,60.38
2023-02-01T16:11:09.706Z,58.08
2023-02-01T16:13:42.229Z,57.50
2023-02-01T16:16:15.087Z,57.45
2023-02-01T16:18:47.081Z,58.58
2023-02-01T16:21:19.068Z,59.70
2023-02-01T16:23:52.502Z,56.78
2023-02-01T16:26:24.495Z,58.53
2023-02-01T16:28:56.388Z,56.78
2023-02-01T16:31:31.238Z,57.42
2023-02-01T16:34:03.787Z,59.75
2023-02-01T16:36:35.907Z,62.30
2023-02-01T16:39:16.783Z,58.83
2023-02-01T16:41:48.855Z,54.97
2023-02-01T16:44:20.759Z,57.05
2023-02-01T16:46:52.746Z,61.97
2023-02-01T16:49:26.476Z,62.55
2023-02-01T16:51:59.734Z,57.10
2023-02-01T16:54:31.883Z,59.58
2023-02-01T16:57:03.795Z,61.15
2023-02-01T16:59:35.796Z,65.45
2023-02-01T17:02:15.748Z,59.75
2023-02-01T17:04:49.716Z,59.15
2023-02-01T17:07:21.735Z,59.00
2023-02-01T17:09:53.804Z,60.45
2023-02-01T17:12:26.768Z,60.13
2023-02-01T17:15:00.112Z,64.57
2023-02-01T17:17:39.211Z,64.72
2023-02-01T17:20:22.046Z,66.85
2023-02-01T17:22:54.387Z,64.45
2023-02-01T17:25:28.685Z,69.63
2023-02-01T17:28:00.701Z,65.65
2023-02-01T17:30:32.899Z,65.57
2023-02-01T17:33:20.637Z,59.05
2023-02-01T17:35:55.575Z,61.50
2023-02-01T17:38:27.650Z,70.30
2023-02-01T17:40:59.629Z,66.15
2023-02-01T17:43:31.595Z,61.80
2023-02-01T17:46:15.776Z,57.85
2023-02-01T17:48:47.664Z,59.53
2023-02-01T17:51:23.599Z,58.05
2023-02-01T17:53:55.770Z,57.60
2023-02-01T17:56:28.671Z,60.47
2023-02-01T17:59:00.536Z,57.08
2023-02-01T18:01:33.107Z,55.70
2023-02-01T18:04:05.247Z,85.70
2023-02-01T18:06:38.599Z,64.38
2023-02-01T18:09:10.620Z,59.33
2023-02-01T18:11:42.680Z,61.17
2023-02-01T18:14:14.650Z,52.50
2023-02-01T18:16:46.969Z,51.97
2023-02-01T18:19:18.839Z,49.70
2023-02-01T18:21:53.154Z,54.00
2023-02-01T18:24:27.289Z,49.97
2023-02-01T18:26:59.654Z,50.00
2023-02-01T18:29:31.609Z,48.70
2023-02-01T18:32:03.822Z,47.25
2023-02-01T18:34:35.812Z,46.67
2023-02-01T18:37:07.749Z,45.83
2023-02-01T18:39:39.765Z,45.67
2023-02-01T18:42:11.969Z,45.55
2023-02-01T18:44:43.870Z,47.03
2023-02-01T18:47:16.381Z,53.40
2023-02-01T18:49:48.562Z,53.58
2023-02-01T18:52:20.544Z,48.25
2023-02-01T18:54:59.513Z,44.35
2023-02-01T18:57:34.987Z,42.30
2023-02-01T19:00:10.663Z,46.85
2023-02-01T19:02:43.254Z,43.20
2023-02-01T19:05:16.858Z,41.13
2023-02-01T19:07:48.848Z,39.22
2023-02-01T19:10:22.777Z,35.70
2023-02-01T19:12:55.861Z,36.03
2023-02-01T19:15:27.807Z,43.70
2023-02-01T19:17:59.847Z,52.65
2023-02-01T19:20:31.759Z,36.60
2023-02-01T19:23:03.657Z,37.47
2023-02-01T19:25:36.225Z,41.63
2023-02-01T19:28:08.211Z,45.25
2023-02-01T19:30:40.222Z,47.42
2023-02-01T19:33:12.362Z,78.15
2023-02-01T19:35:44.343Z,35.35
2023-02-01T19:38:16.610Z,30.98
2023-02-01T19:40:49.683Z,32.40
2023-02-01T19:43:22.085Z,32.72
2023-02-01T19:45:55.035Z,32.88
2023-02-01T19:48:27.885Z,35.20
2023-02-01T19:51:00.651Z,31.25
2023-02-01T19:53:32.637Z,32.10
2023-02-01T19:56:05.005Z,30.92
2023-02-01T19:58:36.935Z,30.88
2023-02-01T20:01:08.280Z,28.65
2023-02-01T20:03:40.149Z,28.30
2023-02-01T20:06:13.516Z,28.08
2023-02-01T20:08:48.077Z,32.58
2023-02-01T20:11:20.754Z,29.20
2023-02-01T20:13:53.369Z,27.23
2023-02-01T20:16:26.022Z,30.25
2023-02-01T20:18:57.935Z,27.50
2023-02-01T20:21:29.864Z,26.30
2023-02-01T20:24:01.972Z,24.92
2023-02-01T20:26:34.819Z,24.63
2023-02-01T20:29:06.794Z,23.92
2023-02-01T20:31:38.828Z,25.70
2023-02-01T20:34:10.978Z,25.52
2023-02-01T20:36:42.837Z,26.35
2023-02-01T20:39:14.751Z,33.25
2023-02-01T20:41:46.724Z,27.42
2023-02-01T20:44:18.758Z,22.83
2023-02-01T20:46:50.788Z,21.95
2023-02-01T20:49:25.282Z,22.70
2023-02-01T20:51:58.078Z,21.00
2023-02-01T20:54:30.120Z,20.77
2023-02-01T20:57:02.412Z,23.20
2023-02-01T20:59:34.260Z,21.80
2023-02-01T21:02:06.665Z,23.42
2023-02-01T21:04:38.558Z,25.45
2023-02-01T21:07:10.395Z,24.17
2023-02-01T21:09:43.335Z,22.80
2023-02-01T21:12:15.236Z,22.70
2023-02-01T21:14:47.074Z,25.67
2023-02-01T21:17:18.916Z,24.77
2023-02-01T21:19:50.802Z,22.38
2023-02-01T21:22:22.738Z,25.83
2023-02-01T21:24:54.630Z,23.92
2023-02-01T21:27:26.454Z,26.98
2023-02-01T21:29:58.400Z,24.20
2023-02-01T21:32:30.282Z,23.08
2023-02-01T21:35:02.219Z,22.73
2023-02-01T21:37:34.527Z,20.15
2023-02-01T21:40:06.996Z,19.52
2023-02-01T21:42:40.481Z,19.33
2023-02-01T21:45:16.555Z,20.77
2023-02-01T21:47:49.709Z,21.73
2023-02-01T21:50:21.674Z,20.08
2023-02-01T21:52:53.584Z,20.00
2023-02-01T21:55:25.827Z,21.17
2023-02-01T21:57:57.873Z,20.60
2023-02-01T22:00:29.767Z,19.65
2023-02-01T22:03:01.690Z,20.95
2023-02-01T22:05:33.528Z,22.17
2023-02-01T22:08:05.867Z,23.00
2023-02-01T22:10:39.203Z,17.13
2023-02-01T22:13:11.234Z,17.38
2023-02-01T22:15:43.119Z,16.92
2023-02-01T22:18:14.998Z,16.60
2023-02-01T22:20:46.914Z,14.27
2023-02-01T22:23:19.262Z,14.15
2023-02-01T22:25:51.051Z,14.30
2023-02-01T22:28:33.070Z,14.32
2023-02-01T22:31:09.009Z,15.82
2023-02-01T22:33:40.987Z,16.15
2023-02-01T22:36:16.855Z,13.35
2023-02-01T22:38:48.767Z,12.52
2023-02-01T22:41:20.684Z,13.50
2023-02-01T22:43:52.631Z,12.63
2023-02-01T22:46:25.533Z,11.50
2023-02-01T22:48:58.929Z,12.75
2023-02-01T22:51:32.152Z,11.85
2023-02-01T22:54:04.560Z,12.15
2023-02-01T22:56:37.524Z,12.27
2023-02-01T22:59:12.287Z,11.80
2023-02-01T23:01:44.744Z,11.68
2023-02-01T23:04:16.750Z,11.88
2023-02-01T23:06:52.095Z,11.10
2023-02-01T23:09:25.846Z,10.82
2023-02-01T23:11:57.752Z,10.95
2023-02-01T23:14:29.628Z,11.48
2023-02-01T23:17:01.504Z,11.73
2023-02-01T23:19:33.350Z,10.88
2023-02-01T23:22:05.227Z,10.77
2023-02-01T23:24:37.049Z,10.15
2023-02-01T23:27:08.851Z,10.05
2023-02-01T23:29:40.665Z,9.85
2023-02-01T23:32:12.550Z,11.32
2023-02-01T23:34:44.455Z,11.48
2023-02-01T23:37:16.287Z,11.57
2023-02-01T23:39:48.120Z,11.15
2023-02-01T23:42:21.129Z,10.50
2023-02-01T23:44:52.926Z,10.48
2023-02-01T23:47:24.809Z,10.38
2023-02-01T23:49:56.842Z,10.30
2023-02-01T23:52:28.640Z,9.98
2023-02-01T23:55:00.485Z,9.65
2023-02-01T23:57:32.306Z,9.23
